Time;durP1;ratioP1;P1;durP2;ratioP2;P2;SDS_P1;SDS_P2;PMS_P1;PMS_P2;Temp;Humidity;BMP_temperature;BMP_pressure;BME280_temperature;BME280_humidity;BME280_pressure;Samples;Min_cycle;Max_cycle;Signal;HPM_P1;HPM_P2
2021/04/02 00:01:30;;;;;;;;;;;6.50;86.10;;;;;;4868669;29;20015;-81
2021/04/02 00:03:55;;;;;;;;;;;6.50;86.20;;;;;;4861321;29;19947;-81
2021/04/02 00:06:21;;;;;;;;;;;6.50;86.50;;;;;;4861104;29;19943;-81
2021/04/02 00:08:47;;;;;;;;;;;6.50;86.60;;;;;;4860641;29;20007;-81
2021/04/02 00:11:12;;;;;;;;;;;6.50;86.70;;;;;;4860938;29;19931;-81
2021/04/02 00:13:39;;;;;;;;;;;6.40;86.30;;;;;;4861206;29;19924;-81
2021/04/02 00:16:05;;;;;;;;;;;6.40;86.20;;;;;;4859990;29;20433;-81
2021/04/02 00:18:31;;;;;;;;;;;6.30;86.10;;;;;;4861051;29;19924;-81
2021/04/02 00:20:57;;;;;;;;;;;6.30;86.20;;;;;;4861961;29;19924;-81
2021/04/02 00:23:23;;;;;;;;;;;6.20;86.20;;;;;;4860197;29;19934;-82
2021/04/02 00:25:49;;;;;;;;;;;6.20;86.20;;;;;;4878432;29;19995;-81
2021/04/02 00:28:15;;;;;;;;;;;6.20;86.20;;;;;;4879464;29;19934;-81
2021/04/02 00:30:42;;;;;;;;;;;6.10;86.20;;;;;;4878930;29;20287;-81
2021/04/02 00:33:08;;;;;;;;;;;6.10;86.20;;;;;;4879280;29;19988;-81
2021/04/02 00:35:33;;;;;;;;;;;6.10;86.20;;;;;;4879354;29;19955;-81
2021/04/02 00:37:59;;;;;;;;;;;6.00;86.20;;;;;;4877191;29;20007;-81
2021/04/02 00:40:27;;;;;;;;;;;6.00;86.20;;;;;;4873191;29;19928;-81
2021/04/02 00:42:52;;;;;;;;;;;6.00;86.20;;;;;;4860364;29;19924;-81
2021/04/02 00:45:19;;;;;;;;;;;6.00;86.30;;;;;;4860799;29;20436;-81
2021/04/02 00:47:51;;;;;;;;;;;5.90;86.30;;;;;;4860951;29;19928;-81
2021/04/02 00:50:38;;;;;;;;;;;5.90;86.30;;;;;;4859766;29;19971;-81
2021/04/02 00:53:04;;;;;;;;;;;5.90;86.40;;;;;;4860756;29;19946;-81
2021/04/02 00:55:30;;;;;;;;;;;5.90;86.50;;;;;;4860878;29;19980;-81
2021/04/02 00:57:56;;;;;;;;;;;5.90;86.50;;;;;;4860132;29;19979;-81
2021/04/02 01:00:21;;;;;;;;;;;5.90;86.40;;;;;;4867679;29;19931;-81
2021/04/02 01:02:47;;;;;;;;;;;5.90;86.60;;;;;;4879360;29;19931;-81
2021/04/02 01:05:17;;;;;;;;;;;5.80;86.60;;;;;;4878073;29;19979;-81
2021/04/02 01:07:45;;;;;;;;;;;5.80;86.60;;;;;;4871919;29;20019;-81
2021/04/02 01:10:14;;;;;;;;;;;5.80;86.70;;;;;;4860506;29;19924;-81
2021/04/02 01:12:40;;;;;;;;;;;5.80;86.80;;;;;;4860076;29;19924;-81
2021/04/02 01:15:09;;;;;;;;;;;5.80;86.90;;;;;;4860439;29;19928;-80
2021/04/02 01:17:34;;;;;;;;;;;5.80;86.70;;;;;;4860119;29;19932;-81
2021/04/02 01:20:01;;;;;;;;;;;5.70;86.50;;;;;;4860548;29;19924;-81
2021/04/02 01:22:28;;;;;;;;;;;5.70;86.40;;;;;;4860554;29;19963;-81
2021/04/02 01:25:09;;;;;;;;;;;5.70;86.30;;;;;;4860541;29;19923;-81
2021/04/02 01:27:41;;;;;;;;;;;5.60;86.90;;;;;;4860457;29;20018;-81
2021/04/02 01:30:08;;;;;;;;;;;5.60;86.20;;;;;;4859893;29;19924;-81
2021/04/02 01:32:41;;;;;;;;;;;5.50;86.10;;;;;;4868899;29;19924;-81
2021/04/02 01:35:07;;;;;;;;;;;5.50;86.30;;;;;;4862560;29;19924;-79
2021/04/02 01:37:38;;;;;;;;;;;5.50;86.20;;;;;;4863894;29;19924;-81
2021/04/02 01:40:05;;;;;;;;;;;5.40;86.20;;;;;;4873964;29;19932;-81
2021/04/02 01:42:32;;;;;;;;;;;5.40;86.40;;;;;;4860371;29;19924;-81
2021/04/02 01:44:58;;;;;;;;;;;5.40;86.60;;;;;;4860258;29;20269;-82
2021/04/02 01:47:24;;;;;;;;;;;5.40;86.50;;;;;;4860397;29;19998;-82
2021/04/02 01:49:50;;;;;;;;;;;5.30;86.40;;;;;;4863722;29;19972;-81
2021/04/02 01:52:16;;;;;;;;;;;5.30;86.60;;;;;;4863441;29;19963;-82
2021/04/02 01:54:43;;;;;;;;;;;5.30;86.60;;;;;;4862946;29;19963;-81
2021/04/02 01:57:10;;;;;;;;;;;5.20;86.70;;;;;;4880409;29;19966;-82
2021/04/02 01:59:36;;;;;;;;;;;5.20;86.70;;;;;;4897819;29;20006;-80
2021/04/02 02:02:02;;;;;;;;;;;5.20;86.90;;;;;;4878212;29;20018;-80
2021/04/02 02:04:28;;;;;;;;;;;5.10;86.90;;;;;;4886999;29;20332;-79
2021/04/02 02:06:54;;;;;;;;;;;5.10;86.90;;;;;;4900248;29;19927;-80
2021/04/02 02:09:26;;;;;;;;;;;5.10;87.00;;;;;;4893298;29;19979;-80
2021/04/02 02:11:53;;;;;;;;;;;5.10;87.10;;;;;;4883746;29;19931;-79
2021/04/02 02:14:19;;;;;;;;;;;5.10;87.40;;;;;;4886344;29;19928;-79
2021/04/02 02:16:50;;;;;;;;;;;5.10;87.40;;;;;;4880662;29;19928;-79
2021/04/02 02:19:19;;;;;;;;;;;5.10;87.70;;;;;;4884728;29;20357;-80
2021/04/02 02:21:46;;;;;;;;;;;5.10;87.90;;;;;;4878428;29;19938;-79
2021/04/02 02:24:13;;;;;;;;;;;5.10;87.80;;;;;;4884428;29;20296;-78
2021/04/02 02:26:40;;;;;;;;;;;5.10;87.80;;;;;;4883933;29;19923;-80
2021/04/02 02:29:06;;;;;;;;;;;5.10;87.70;;;;;;4880756;29;19928;-80
2021/04/02 02:31:32;;;;;;;;;;;5.00;87.70;;;;;;4882291;29;19924;-80
2021/04/02 02:33:59;;;;;;;;;;;5.00;87.70;;;;;;4873941;29;19924;-80
2021/04/02 02:36:25;;;;;;;;;;;5.00;87.70;;;;;;4878688;29;19978;-80
2021/04/02 02:38:50;;;;;;;;;;;5.00;88.50;;;;;;4879167;29;19964;-80
2021/04/02 02:41:16;;;;;;;;;;;5.00;87.70;;;;;;4879292;29;19930;-81
2021/04/02 02:43:48;;;;;;;;;;;5.00;87.60;;;;;;4878324;29;19927;-81
2021/04/02 02:46:14;;;;;;;;;;;4.90;87.60;;;;;;4879831;29;19960;-80
2021/04/02 02:48:47;;;;;;;;;;;4.90;87.50;;;;;;4880052;29;20028;-80
2021/04/02 02:51:13;;;;;;;;;;;4.90;87.60;;;;;;4879342;29;19931;-80
2021/04/02 02:53:40;;;;;;;;;;;4.90;87.40;;;;;;4879884;29;19923;-81
2021/04/02 02:56:06;;;;;;;;;;;4.90;87.50;;;;;;4861971;29;19976;-81
2021/04/02 02:58:32;;;;;;;;;;;4.90;87.60;;;;;;4861486;29;20373;-80
2021/04/02 03:00:59;;;;;;;;;;;4.90;87.40;;;;;;4869076;29;19923;-80
2021/04/02 03:03:25;;;;;;;;;;;4.90;87.30;;;;;;4888195;29;19919;-81
2021/04/02 03:05:52;;;;;;;;;;;4.80;87.20;;;;;;4888668;29;20296;-80
2021/04/02 03:08:19;;;;;;;;;;;4.90;87.30;;;;;;4880535;29;20336;-80
2021/04/02 03:10:45;;;;;;;;;;;4.90;87.40;;;;;;4878943;29;19924;-81
2021/04/02 03:13:11;;;;;;;;;;;4.90;87.30;;;;;;4892366;29;19930;-80
2021/04/02 03:15:37;;;;;;;;;;;4.80;87.10;;;;;;4899398;29;19924;-82
2021/04/02 03:18:04;;;;;;;;;;;4.80;87.30;;;;;;4891455;29;20336;-81
2021/04/02 03:20:32;;;;;;;;;;;4.80;87.10;;;;;;4892500;29;19924;-81
2021/04/02 03:22:57;;;;;;;;;;;4.80;87.20;;;;;;4899154;29;19924;-81
2021/04/02 03:25:25;;;;;;;;;;;4.80;87.20;;;;;;4883267;29;19946;-81
2021/04/02 03:27:51;;;;;;;;;;;4.80;87.20;;;;;;4888445;29;20277;-81
2021/04/02 03:30:18;;;;;;;;;;;4.70;87.10;;;;;;4899036;29;19927;-81
2021/04/02 03:32:45;;;;;;;;;;;4.80;87.20;;;;;;4898144;29;19962;-81
2021/04/02 03:35:11;;;;;;;;;;;4.80;87.30;;;;;;4899001;29;20417;-81
2021/04/02 03:37:38;;;;;;;;;;;4.80;87.20;;;;;;4891272;29;19924;-81
2021/04/02 03:40:08;;;;;;;;;;;4.80;87.20;;;;;;4879475;29;19924;-81
2021/04/02 03:42:34;;;;;;;;;;;4.80;87.30;;;;;;4863572;29;19975;-81
2021/04/02 03:45:00;;;;;;;;;;;4.80;87.70;;;;;;4861282;29;19931;-82
2021/04/02 03:47:26;;;;;;;;;;;4.80;87.30;;;;;;4861241;29;19928;-82
2021/04/02 03:49:52;;;;;;;;;;;4.80;87.20;;;;;;4861156;29;19931;-82
2021/04/02 03:52:21;;;;;;;;;;;4.80;87.30;;;;;;4861492;29;20453;-82
2021/04/02 03:54:48;;;;;;;;;;;4.70;88.10;;;;;;4871595;29;19927;-82
2021/04/02 03:57:15;;;;;;;;;;;4.80;87.30;;;;;;4879929;29;19924;-82
2021/04/02 03:59:41;;;;;;;;;;;4.80;87.30;;;;;;4880054;29;19927;-82
2021/04/02 04:02:07;;;;;;;;;;;4.70;87.30;;;;;;4878842;29;20288;-83
2021/04/02 04:04:33;;;;;;;;;;;4.70;87.30;;;;;;4880093;29;19924;-82
2021/04/02 04:07:00;;;;;;;;;;;4.70;87.20;;;;;;4878377;29;20002;-82
2021/04/02 04:09:29;;;;;;;;;;;4.70;87.20;;;;;;4879840;29;19923;-82
2021/04/02 04:11:56;;;;;;;;;;;4.70;87.20;;;;;;4879103;29;20373;-82
2021/04/02 04:14:22;;;;;;;;;;;4.70;87.20;;;;;;4879111;29;20308;-82
2021/04/02 04:16:48;;;;;;;;;;;4.70;87.20;;;;;;4879286;29;19923;-82
2021/04/02 04:19:18;;;;;;;;;;;4.70;87.20;;;;;;4879562;29;19963;-82
2021/04/02 04:21:45;;;;;;;;;;;4.70;87.20;;;;;;4878589;29;19923;-82
2021/04/02 04:24:15;;;;;;;;;;;4.70;87.20;;;;;;4863122;29;19927;-82
2021/04/02 04:26:43;;;;;;;;;;;4.70;87.90;;;;;;4861155;29;19931;-82
2021/04/02 04:29:11;;;;;;;;;;;4.70;87.20;;;;;;4860341;29;19930;-82
2021/04/02 04:31:38;;;;;;;;;;;4.70;87.30;;;;;;4861081;29;19946;-82
2021/04/02 04:34:04;;;;;;;;;;;4.70;87.30;;;;;;4860834;29;19927;-83
2021/04/02 04:36:30;;;;;;;;;;;4.70;87.40;;;;;;4860308;29;20003;-82
2021/04/02 04:38:57;;;;;;;;;;;4.70;87.30;;;;;;4860603;29;20381;-83
2021/04/02 04:41:24;;;;;;;;;;;4.70;87.60;;;;;;4860629;29;20433;-83
2021/04/02 04:43:50;;;;;;;;;;;4.80;87.80;;;;;;4859948;29;19924;-82
2021/04/02 04:46:16;;;;;;;;;;;4.80;87.50;;;;;;4860920;29;19975;-83
2021/04/02 04:48:42;;;;;;;;;;;4.80;87.50;;;;;;4860622;29;19931;-82
2021/04/02 04:51:08;;;;;;;;;;;4.80;87.50;;;;;;4860254;29;19924;-82
2021/04/02 04:53:35;;;;;;;;;;;4.80;87.50;;;;;;4871799;29;19924;-83
2021/04/02 04:56:02;;;;;;;;;;;4.80;87.60;;;;;;4878825;29;20117;-82
2021/04/02 04:58:30;;;;;;;;;;;4.90;87.60;;;;;;4876554;29;20296;-83
2021/04/02 05:00:57;;;;;;;;;;;4.80;87.50;;;;;;4860619;29;19923;-83
2021/04/02 05:03:24;;;;;;;;;;;4.90;87.50;;;;;;4859987;29;20353;-82
2021/04/02 05:05:51;;;;;;;;;;;4.90;87.70;;;;;;4860526;29;19924;-82
2021/04/02 05:08:19;;;;;;;;;;;4.90;87.30;;;;;;4860803;29;20015;-83
2021/04/02 05:10:45;;;;;;;;;;;4.90;87.40;;;;;;4874408;29;20010;-82
2021/04/02 05:13:12;;;;;;;;;;;5.00;87.00;;;;;;4880400;29;19931;-83
2021/04/02 05:15:38;;;;;;;;;;;5.00;87.00;;;;;;4887054;29;19924;-82
2021/04/02 05:18:04;;;;;;;;;;;5.00;87.00;;;;;;4892969;29;20368;-83
2021/04/02 05:20:32;;;;;;;;;;;5.00;86.50;;;;;;4880652;29;19976;-82
2021/04/02 05:22:57;;;;;;;;;;;5.00;86.40;;;;;;4883000;29;20372;-83
2021/04/02 05:25:23;;;;;;;;;;;5.10;86.30;;;;;;4863453;29;19924;-83
2021/04/02 05:27:48;;;;;;;;;;;5.10;86.00;;;;;;4864091;29;20019;-83
2021/04/02 05:30:17;;;;;;;;;;;5.10;86.00;;;;;;4864231;29;20368;-82
2021/04/02 05:32:43;;;;;;;;;;;5.10;85.90;;;;;;4871319;29;19923;-83
2021/04/02 05:35:09;;;;;;;;;;;5.10;86.10;;;;;;4882686;29;20022;-82
2021/04/02 05:37:39;;;;;;;;;;;5.10;85.60;;;;;;4880942;29;19967;-83
2021/04/02 05:40:05;;;;;;;;;;;5.10;85.40;;;;;;4862782;29;19930;-82
2021/04/02 05:42:32;;;;;;;;;;;5.10;85.40;;;;;;4863653;29;19924;-83
2021/04/02 05:44:59;;;;;;;;;;;5.10;85.40;;;;;;4863499;29;19924;-83
2021/04/02 05:47:27;;;;;;;;;;;5.10;85.60;;;;;;4863164;29;19931;-82
2021/04/02 05:49:53;;;;;;;;;;;5.20;85.80;;;;;;4900367;29;19931;-82
2021/04/02 05:52:37;;;;;;;;;;;5.10;85.60;;;;;;4892215;29;19924;-83
2021/04/02 05:55:04;;;;;;;;;;;5.20;85.40;;;;;;4862931;29;19928;-82
2021/04/02 05:57:32;;;;;;;;;;;5.20;85.40;;;;;;4863688;29;19924;-82
2021/04/02 05:59:58;;;;;;;;;;;5.30;85.50;;;;;;4862666;29;19931;-82
2021/04/02 06:02:40;;;;;;;;;;;5.20;85.50;;;;;;4863072;29;19956;-82
2021/04/02 06:05:44;;;;;;;;;;;;;;;;;;;;;
2021/04/02 06:15:08;;;;;;;;;;;5.30;85.40;;;;;;4802594;29;19920;-80
2021/04/02 06:21:30;;;;;;;;;;;5.40;85.40;;;;;;4787203;30;19928;-81
2021/04/02 06:27:31;;;;;;;;;;;5.40;84.70;;;;;;5005928;23;20064;-80
2021/04/02 06:30:03;;;;;;;;;;;5.40;84.50;;;;;;4845992;29;19928;-80
2021/04/02 06:32:52;;;;;;;;;;;5.40;84.50;;;;;;4860580;29;20335;-80
2021/04/02 06:35:24;;;;;;;;;;;5.40;84.60;;;;;;4857218;29;19924;-80
2021/04/02 06:38:02;;;;;;;;;;;5.40;84.50;;;;;;4861983;29;19924;-80
2021/04/02 06:40:29;;;;;;;;;;;5.40;84.60;;;;;;4862664;29;20358;-80
2021/04/02 06:42:57;;;;;;;;;;;5.40;84.60;;;;;;4860062;29;19949;-80
2021/04/02 06:45:25;;;;;;;;;;;5.50;84.80;;;;;;4862552;29;20385;-81
2021/04/02 06:47:59;;;;;;;;;;;5.50;83.90;;;;;;4862400;29;19924;-81
2021/04/02 06:50:25;;;;;;;;;;;5.50;84.40;;;;;;4861739;29;20419;-81
2021/04/02 06:52:52;;;;;;;;;;;5.50;84.90;;;;;;4862309;29;19931;-81
2021/04/02 06:55:19;;;;;;;;;;;5.60;85.00;;;;;;4861112;29;19927;-81
2021/04/02 06:57:53;;;;;;;;;;;5.50;84.40;;;;;;4861535;29;19924;-81
2021/04/02 07:00:38;;;;;;;;;;;5.60;84.30;;;;;;4860639;29;20006;-80
2021/04/02 07:03:05;;;;;;;;;;;5.60;84.50;;;;;;4857685;29;19980;-81
2021/04/02 07:05:32;;;;;;;;;;;5.60;84.50;;;;;;4855933;29;19920;-81
2021/04/02 07:08:07;;;;;;;;;;;5.60;84.70;;;;;;4860573;29;20296;-82
2021/04/02 07:10:33;;;;;;;;;;;5.60;84.10;;;;;;4854827;29;19928;-80
2021/04/02 07:13:01;;;;;;;;;;;5.60;84.00;;;;;;4859953;29;19966;-82
2021/04/02 07:15:27;;;;;;;;;;;5.70;84.20;;;;;;4848541;29;20394;-80
2021/04/02 07:18:12;;;;;;;;;;;5.70;84.20;;;;;;4839749;29;19932;-80
2021/04/02 07:20:50;;;;;;;;;;;5.70;84.70;;;;;;4843334;29;19950;-81
2021/04/02 07:23:19;;;;;;;;;;;5.80;84.30;;;;;;4843858;29;20397;-81
2021/04/02 07:25:45;;;;;;;;;;;5.80;84.20;;;;;;4843791;29;19987;-81
2021/04/02 07:28:13;;;;;;;;;;;5.80;84.30;;;;;;4871206;29;20169;-82
2021/04/02 07:30:43;;;;;;;;;;;5.80;84.20;;;;;;4874890;29;19928;-81
2021/04/02 07:33:09;;;;;;;;;;;5.80;84.70;;;;;;4875669;29;19928;-83
2021/04/02 07:35:36;;;;;;;;;;;5.80;85.00;;;;;;4881329;29;20009;-82
2021/04/02 07:38:03;;;;;;;;;;;5.90;85.20;;;;;;4877716;29;19935;-83
2021/04/02 07:40:30;;;;;;;;;;;5.90;84.20;;;;;;4879906;29;20002;-82
2021/04/02 07:42:57;;;;;;;;;;;5.90;83.80;;;;;;4880373;29;19923;-79
2021/04/02 07:45:24;;;;;;;;;;;6.00;83.80;;;;;;4874786;29;19934;-79
2021/04/02 07:47:51;;;;;;;;;;;5.90;84.20;;;;;;4877159;29;20407;-80
2021/04/02 07:50:28;;;;;;;;;;;6.00;84.20;;;;;;4875184;29;19924;-80
2021/04/02 07:52:55;;;;;;;;;;;6.00;84.40;;;;;;4874908;29;19967;-80
2021/04/02 07:55:23;;;;;;;;;;;6.10;83.90;;;;;;4875754;29;19924;-79
2021/04/02 07:57:51;;;;;;;;;;;6.00;84.10;;;;;;4866731;29;19924;-79
2021/04/02 08:00:17;;;;;;;;;;;6.10;83.80;;;;;;4877677;29;19975;-81
2021/04/02 08:02:45;;;;;;;;;;;6.10;84.00;;;;;;4876441;29;20296;-80
2021/04/02 08:05:14;;;;;;;;;;;6.10;84.60;;;;;;4870615;29;20039;-79
2021/04/02 08:07:45;;;;;;;;;;;6.10;83.90;;;;;;4878499;29;19923;-79
2021/04/02 08:10:11;;;;;;;;;;;6.20;83.30;;;;;;4879689;29;19924;-80
2021/04/02 08:12:37;;;;;;;;;;;6.20;83.30;;;;;;4878196;29;19928;-81
2021/04/02 08:15:07;;;;;;;;;;;6.20;82.40;;;;;;4877835;29;19980;-82
2021/04/02 08:17:33;;;;;;;;;;;6.20;81.70;;;;;;4873001;29;19952;-82
2021/04/02 08:20:16;;;;;;;;;;;6.20;81.20;;;;;;4860863;29;20026;-82
2021/04/02 08:22:42;;;;;;;;;;;6.20;81.90;;;;;;4864697;29;20264;-81
2021/04/02 08:25:12;;;;;;;;;;;6.30;82.90;;;;;;4872690;29;19920;-82
2021/04/02 08:30:45;;;;;;;;;;;6.30;83.50;;;;;;4775628;29;20043;-81
2021/04/02 08:33:30;;;;;;;;;;;6.30;82.20;;;;;;4817150;29;19957;-80
2021/04/02 08:39:29;;;;;;;;;;;6.30;81.60;;;;;;4764241;30;19926;-81
2021/04/02 08:42:02;;;;;;;;;;;6.40;81.60;;;;;;4767059;30;19929;-81
2021/04/02 08:44:49;;;;;;;;;;;6.40;81.40;;;;;;4764818;30;20384;-81
2021/04/02 08:50:34;;;;;;;;;;;6.40;81.00;;;;;;4785243;29;19932;-81
2021/04/02 08:53:12;;;;;;;;;;;6.50;82.20;;;;;;4809491;29;20359;-81
2021/04/02 08:56:26;;;;;;;;;;;6.50;81.30;;;;;;4815541;29;19981;-82
2021/04/02 08:59:09;;;;;;;;;;;6.50;81.20;;;;;;4771281;30;19930;-84
2021/04/02 09:01:40;;;;;;;;;;;6.60;80.80;;;;;;4792114;29;19933;-82
2021/04/02 09:04:06;;;;;;;;;;;6.60;81.10;;;;;;4807121;29;19924;-81
2021/04/02 09:06:36;;;;;;;;;;;6.60;80.90;;;;;;4820573;29;19925;-81
2021/04/02 09:09:29;;;;;;;;;;;6.70;80.70;;;;;;4879354;29;19927;-81
2021/04/02 09:12:05;;;;;;;;;;;6.70;79.40;;;;;;4876464;29;19924;-81
2021/04/02 09:14:34;;;;;;;;;;;6.70;79.30;;;;;;4876090;29;19924;-81
2021/04/02 09:17:09;;;;;;;;;;;6.70;79.10;;;;;;4868436;29;19939;-81
2021/04/02 09:19:35;;;;;;;;;;;6.70;79.50;;;;;;4881357;29;19924;-81
2021/04/02 09:22:01;;;;;;;;;;;6.80;78.80;;;;;;4881206;29;20022;-81
2021/04/02 09:24:38;;;;;;;;;;;6.80;79.30;;;;;;4880538;29;20098;-81
2021/04/02 09:27:28;;;;;;;;;;;6.80;79.10;;;;;;4877076;29;20298;-81
2021/04/02 09:30:05;;;;;;;;;;;6.80;78.80;;;;;;4870136;29;19923;-80
2021/04/02 09:32:32;;;;;;;;;;;6.90;78.50;;;;;;4877813;29;19924;-80
2021/04/02 09:34:58;;;;;;;;;;;7.00;78.20;;;;;;4881355;29;20018;-79
2021/04/02 09:37:35;;;;;;;;;;;7.00;78.90;;;;;;4879399;29;19955;-80
2021/04/02 09:40:03;;;;;;;;;;;7.00;78.00;;;;;;4880782;29;20022;-81
2021/04/02 09:42:30;;;;;;;;;;;7.00;77.40;;;;;;4881527;29;19924;-81
2021/04/02 09:45:06;;;;;;;;;;;7.00;78.40;;;;;;4878530;29;19935;-80
2021/04/02 09:48:02;;;;;;;;;;;7.00;78.30;;;;;;4880404;29;19972;-80
2021/04/02 09:50:31;;;;;;;;;;;7.00;78.50;;;;;;4869416;29;19924;-80
2021/04/02 09:52:57;;;;;;;;;;;6.90;77.80;;;;;;4879621;29;19927;-79
2021/04/02 09:55:26;;;;;;;;;;;6.90;76.60;;;;;;4871384;29;19924;-79
2021/04/02 09:57:56;;;;;;;;;;;6.90;77.80;;;;;;4880968;29;20292;-79
2021/04/02 10:00:25;;;;;;;;;;;6.90;77.70;;;;;;4873343;29;19931;-79
2021/04/02 10:02:50;;;;;;;;;;;6.90;77.90;;;;;;4881353;29;19924;-81
2021/04/02 10:05:16;;;;;;;;;;;6.90;78.10;;;;;;4878619;29;19931;-79
2021/04/02 10:07:41;;;;;;;;;;;6.90;77.80;;;;;;4879883;29;20365;-81
2021/04/02 10:10:07;;;;;;;;;;;7.00;77.90;;;;;;4880833;29;19978;-80
2021/04/02 10:12:33;;;;;;;;;;;7.00;78.90;;;;;;4880994;29;19962;-80
2021/04/02 10:14:58;;;;;;;;;;;7.00;77.90;;;;;;4878958;29;19952;-80
2021/04/02 10:17:26;;;;;;;;;;;7.00;78.30;;;;;;4871866;29;19931;-80
2021/04/02 10:19:52;;;;;;;;;;;7.00;78.60;;;;;;4856314;29;20329;-80
2021/04/02 10:22:18;;;;;;;;;;;7.00;79.00;;;;;;4873309;29;19931;-80
2021/04/02 10:24:46;;;;;;;;;;;7.00;79.50;;;;;;4879187;29;19946;-80
2021/04/02 10:27:11;;;;;;;;;;;7.10;79.80;;;;;;4874493;29;20382;-79
2021/04/02 10:29:37;;;;;;;;;;;7.10;80.30;;;;;;4869523;29;19928;-80
2021/04/02 10:32:03;;;;;;;;;;;7.10;80.30;;;;;;4867932;29;19927;-80
2021/04/02 10:34:29;;;;;;;;;;;7.10;80.20;;;;;;4872278;29;20029;-80
2021/04/02 10:37:26;;;;;;;;;;;;;;;;;;;;;
2021/04/02 10:40:26;;;;;;;;;;;7.10;79.70;;;;;;4849863;29;19918;-80
2021/04/02 10:43:02;;;;;;;;;;;7.10;79.90;;;;;;4867352;29;19936;-80
2021/04/02 10:45:28;;;;;;;;;;;7.20;79.60;;;;;;4879481;29;19924;-80
2021/04/02 10:47:57;;;;;;;;;;;7.20;78.10;;;;;;4874799;29;19934;-79
2021/04/02 10:50:23;;;;;;;;;;;7.20;78.50;;;;;;4869351;29;19924;-79
2021/04/02 10:52:49;;;;;;;;;;;7.20;78.90;;;;;;4870654;29;20299;-79
2021/04/02 10:55:15;;;;;;;;;;;7.20;79.10;;;;;;4880551;29;20018;-79
2021/04/02 10:57:43;;;;;;;;;;;7.20;79.10;;;;;;4874462;29;20379;-81
2021/04/02 11:00:10;;;;;;;;;;;7.20;79.20;;;;;;4879291;29;20379;-81
2021/04/02 11:02:35;;;;;;;;;;;7.20;79.40;;;;;;4877464;29;19926;-82
2021/04/02 11:05:02;;;;;;;;;;;7.30;79.20;;;;;;4871803;29;19927;-81
2021/04/02 11:07:27;;;;;;;;;;;7.30;79.10;;;;;;4880531;29;20007;-80
2021/04/02 11:09:53;;;;;;;;;;;7.30;79.00;;;;;;4879730;29;20427;-79
2021/04/02 11:12:19;;;;;;;;;;;7.40;79.10;;;;;;4880625;29;19924;-80
2021/04/02 11:14:44;;;;;;;;;;;7.40;78.80;;;;;;4873449;29;19930;-80
2021/04/02 11:17:15;;;;;;;;;;;7.40;78.70;;;;;;4879649;29;19924;-82
2021/04/02 11:19:40;;;;;;;;;;;7.40;78.30;;;;;;4879818;29;19924;-83
2021/04/02 11:22:06;;;;;;;;;;;7.40;78.80;;;;;;4871233;29;20352;-83
2021/04/02 11:24:35;;;;;;;;;;;7.30;79.00;;;;;;4860329;29;19936;-83
2021/04/02 11:30:20;;;;;;;;;;;7.30;79.10;;;;;;5896843;23;20975;31
2021/04/02 11:33:08;;;;;;;;;;;7.40;79.50;;;;;;4812354;29;19924;-81
2021/04/02 11:35:34;;;;;;;;;;;7.30;79.80;;;;;;4825416;29;19925;-82
2021/04/02 11:38:26;;;;;;;;;;;7.30;78.70;;;;;;4824308;29;19983;-81
2021/04/02 11:40:52;;;;;;;;;;;7.30;79.00;;;;;;4825227;29;19925;-81
2021/04/02 11:43:18;;;;;;;;;;;7.30;79.70;;;;;;4825428;29;20015;-82
2021/04/02 11:45:44;;;;;;;;;;;7.40;79.60;;;;;;4824138;29;19925;-82
2021/04/02 11:48:10;;;;;;;;;;;7.40;79.60;;;;;;4825040;29;20011;-82
2021/04/02 11:50:35;;;;;;;;;;;7.40;78.60;;;;;;4825141;29;19925;-82
2021/04/02 11:53:01;;;;;;;;;;;7.40;79.00;;;;;;4824135;29;19978;-81
2021/04/02 11:55:27;;;;;;;;;;;7.40;78.60;;;;;;4825382;29;20034;-81
2021/04/02 11:57:52;;;;;;;;;;;7.50;78.50;;;;;;4824773;29;19981;-82
2021/04/02 12:00:18;;;;;;;;;;;7.50;78.70;;;;;;4824523;29;19960;-81
2021/04/02 12:02:44;;;;;;;;;;;7.50;79.50;;;;;;4824673;29;20298;-82
2021/04/02 12:05:10;;;;;;;;;;;7.60;78.50;;;;;;4824227;29;20335;-82
2021/04/02 12:07:36;;;;;;;;;;;7.60;79.00;;;;;;4824861;29;19925;-82
2021/04/02 12:10:03;;;;;;;;;;;7.60;78.70;;;;;;4824797;29;19928;-82
2021/04/02 12:12:29;;;;;;;;;;;7.60;77.70;;;;;;4824244;29;19960;-82
2021/04/02 12:14:54;;;;;;;;;;;7.60;76.80;;;;;;4824475;29;19975;-83
2021/04/02 12:17:21;;;;;;;;;;;7.60;76.70;;;;;;4824853;29;19980;-83
2021/04/02 12:19:46;;;;;;;;;;;7.60;77.00;;;;;;4823754;29;20007;-82
2021/04/02 12:22:12;;;;;;;;;;;7.60;76.60;;;;;;4824628;29;20015;-82
2021/04/02 12:24:38;;;;;;;;;;;7.60;76.60;;;;;;4824915;29;19932;-82
2021/04/02 12:27:04;;;;;;;;;;;7.60;77.60;;;;;;4824018;29;20000;-82
2021/04/02 12:29:30;;;;;;;;;;;7.60;77.00;;;;;;4824581;29;20382;-82
2021/04/02 12:31:55;;;;;;;;;;;7.60;77.60;;;;;;4823643;29;19932;-83
2021/04/02 12:34:21;;;;;;;;;;;7.70;77.70;;;;;;4823760;29;19925;-82
2021/04/02 12:36:46;;;;;;;;;;;7.70;77.60;;;;;;4824214;29;19928;-82
2021/04/02 12:39:12;;;;;;;;;;;7.80;77.20;;;;;;4824827;29;19989;-82
2021/04/02 12:41:38;;;;;;;;;;;7.80;77.10;;;;;;4823939;29;19928;-82
2021/04/02 12:44:03;;;;;;;;;;;7.80;77.00;;;;;;4824474;29;20340;-82
2021/04/02 12:46:29;;;;;;;;;;;7.90;76.80;;;;;;4824633;29;19951;-82
2021/04/02 12:48:55;;;;;;;;;;;7.90;76.00;;;;;;4823899;29;20358;-82
2021/04/02 12:51:20;;;;;;;;;;;8.00;76.70;;;;;;4824435;29;19925;-82
2021/04/02 12:53:46;;;;;;;;;;;8.00;76.60;;;;;;4824274;29;19981;-82
2021/04/02 12:56:12;;;;;;;;;;;8.00;76.40;;;;;;4823727;29;19932;-82
2021/04/02 12:58:37;;;;;;;;;;;8.00;76.00;;;;;;4824546;29;19931;-82
2021/04/02 13:01:03;;;;;;;;;;;8.10;75.90;;;;;;4824218;29;19932;-82
2021/04/02 13:03:29;;;;;;;;;;;8.10;75.30;;;;;;4823472;29;19985;-82
2021/04/02 13:05:54;;;;;;;;;;;8.20;75.10;;;;;;4823930;29;19981;-83
2021/04/02 13:08:20;;;;;;;;;;;8.20;74.20;;;;;;4824408;29;19925;-82
2021/04/02 13:10:46;;;;;;;;;;;8.30;75.20;;;;;;4823646;29;20043;-83
2021/04/02 13:13:11;;;;;;;;;;;8.30;74.60;;;;;;4824357;29;19931;-83
2021/04/02 13:15:37;;;;;;;;;;;8.30;73.60;;;;;;4823528;29;19975;-82
2021/04/02 13:18:03;;;;;;;;;;;8.40;73.80;;;;;;4823909;29;19928;-83
2021/04/02 13:20:30;;;;;;;;;;;8.40;73.20;;;;;;4823975;29;19935;-83
2021/04/02 13:22:56;;;;;;;;;;;8.40;72.50;;;;;;4823141;29;19931;-82
2021/04/02 13:25:22;;;;;;;;;;;8.40;73.20;;;;;;4824262;29;19933;-82
2021/04/02 13:27:48;;;;;;;;;;;8.40;71.60;;;;;;4823888;29;19931;-82
2021/04/02 13:30:14;;;;;;;;;;;8.50;72.60;;;;;;4823288;29;20358;-83
2021/04/02 13:32:50;;;;;;;;;;;8.50;70.80;;;;;;4822776;29;19924;-85
2021/04/02 13:35:17;;;;;;;;;;;8.50;71.50;;;;;;4894415;23;19923;-83
2021/04/02 13:37:59;;;;;;;;;;;8.50;72.10;;;;;;4889710;29;19923;-84
2021/04/02 13:40:33;;;;;;;;;;;8.50;71.10;;;;;;4891682;29;20368;-84
2021/04/02 13:42:59;;;;;;;;;;;8.50;71.10;;;;;;4891672;29;19930;-83
2021/04/02 13:45:31;;;;;;;;;;;8.50;70.70;;;;;;4889240;29;19920;-83
2021/04/02 13:47:57;;;;;;;;;;;8.40;72.50;;;;;;4898040;29;19927;-81
2021/04/02 13:50:27;;;;;;;;;;;8.40;71.00;;;;;;4888081;29;19923;-84
2021/04/02 13:52:53;;;;;;;;;;;8.40;72.10;;;;;;4882422;29;19924;-82
2021/04/02 13:55:20;;;;;;;;;;;8.40;70.50;;;;;;4896871;29;20334;-82
2021/04/02 13:57:48;;;;;;;;;;;8.40;72.10;;;;;;4895078;29;19931;-85
2021/04/02 14:00:18;;;;;;;;;;;8.40;70.80;;;;;;4892613;29;20447;-81
2021/04/02 14:02:43;;;;;;;;;;;8.40;71.90;;;;;;4894354;29;19963;-81
2021/04/02 14:05:11;;;;;;;;;;;8.40;73.10;;;;;;4898424;29;19978;-82
2021/04/02 14:07:37;;;;;;;;;;;8.40;72.40;;;;;;4890108;29;20387;-82
2021/04/02 14:10:07;;;;;;;;;;;8.40;71.30;;;;;;4900530;29;19934;-82
2021/04/02 14:12:32;;;;;;;;;;;8.50;72.40;;;;;;4886667;29;19923;-82
2021/04/02 14:14:58;;;;;;;;;;;8.50;71.70;;;;;;4881800;29;19931;-82
2021/04/02 14:17:24;;;;;;;;;;;8.50;72.00;;;;;;4882100;29;20385;-82
2021/04/02 14:19:49;;;;;;;;;;;8.50;71.80;;;;;;4885838;29;20384;-82
2021/04/02 14:22:15;;;;;;;;;;;8.60;72.60;;;;;;4910932;29;20265;-82
2021/04/02 14:24:40;;;;;;;;;;;8.60;72.50;;;;;;4887508;29;20308;-82
2021/04/02 14:27:07;;;;;;;;;;;8.60;73.30;;;;;;4880750;29;19924;-81
2021/04/02 14:29:32;;;;;;;;;;;8.60;73.00;;;;;;4881718;29;19924;-80
2021/04/02 14:31:58;;;;;;;;;;;8.60;73.90;;;;;;4884382;29;20288;-83
2021/04/02 14:34:25;;;;;;;;;;;8.60;74.30;;;;;;4885250;29;20014;-84
2021/04/02 14:36:54;;;;;;;;;;;8.60;74.70;;;;;;4888360;29;20283;-81
2021/04/02 14:39:20;;;;;;;;;;;8.60;73.50;;;;;;4889124;29;19919;-81
2021/04/02 14:41:45;;;;;;;;;;;8.60;74.30;;;;;;4883543;29;19942;-80
2021/04/02 14:44:11;;;;;;;;;;;8.60;74.20;;;;;;4892441;29;20014;-81
2021/04/02 14:46:37;;;;;;;;;;;8.60;75.60;;;;;;4891213;29;19958;-80
2021/04/02 14:49:03;;;;;;;;;;;8.70;75.90;;;;;;4893019;29;20344;-80
2021/04/02 14:51:28;;;;;;;;;;;8.70;76.00;;;;;;4889733;29;19927;-80
2021/04/02 14:53:54;;;;;;;;;;;8.70;77.00;;;;;;4891232;29;19963;-81
2021/04/02 14:56:21;;;;;;;;;;;8.70;76.10;;;;;;4893679;29;19942;-80
2021/04/02 14:58:47;;;;;;;;;;;8.70;75.80;;;;;;4895575;29;20444;-79
2021/04/02 15:01:13;;;;;;;;;;;8.70;76.30;;;;;;4895394;29;19927;-81
2021/04/02 15:03:38;;;;;;;;;;;8.70;77.00;;;;;;4886922;29;20383;-81
2021/04/02 15:06:04;;;;;;;;;;;8.70;75.40;;;;;;4891980;29;20333;-80